Time;durP1;ratioP1;P1;durP2;ratioP2;P2;SDS_P1;SDS_P2;PMS_P1;PMS_P2;Temp;Humidity;BMP_temperature;BMP_pressure;BME280_temperature;BME280_humidity;BME280_pressure;Samples;Min_cycle;Max_cycle;Signal;HPM_P1;HPM_P2
2022/03/03 00:00:06;;;;;;;20.37;14.60;;;;;;;5.45;47.31;101950.28;5251723;28;20033;-72
2022/03/03 00:02:37;;;;;;;23.40;16.47;;;;;;;5.47;47.63;101944.16;5267891;28;20036;-71
2022/03/03 00:05:09;;;;;;;19.83;14.30;;;;;;;5.50;46.64;101941.53;5269175;28;20587;-71
2022/03/03 00:07:41;;;;;;;24.10;14.73;;;;;;;5.45;47.12;101933.81;5262563;28;20112;-71
2022/03/03 00:10:12;;;;;;;21.50;14.17;;;;;;;5.22;47.29;101929.94;5272945;28;20531;-71
2022/03/03 00:12:43;;;;;;;22.50;14.97;;;;;;;5.12;48.35;101934.47;5249156;28;20097;-71
2022/03/03 00:15:15;;;;;;;19.93;14.33;;;;;;;4.95;48.28;101927.00;5259996;28;20040;-71
2022/03/03 00:17:46;;;;;;;19.57;13.83;;;;;;;4.83;48.76;101934.09;5265490;28;20027;-71
2022/03/03 00:20:17;;;;;;;18.80;13.97;;;;;;;4.94;48.70;101925.28;5250919;28;20476;-71
2022/03/03 00:22:48;;;;;;;19.63;14.97;;;;;;;4.84;49.08;101933.25;5250689;28;20393;-71
2022/03/03 00:25:20;;;;;;;19.30;14.57;;;;;;;4.57;49.24;101927.63;5251450;28;20519;-71
2022/03/03 00:27:51;;;;;;;21.60;14.57;;;;;;;4.54;49.50;101927.69;5250946;28;20028;-71
2022/03/03 00:30:22;;;;;;;23.00;13.83;;;;;;;4.80;50.13;101931.56;5252183;28;20036;-71
2022/03/03 00:32:53;;;;;;;21.33;15.00;;;;;;;4.83;49.57;101921.13;5251920;28;20024;-71
2022/03/03 00:35:25;;;;;;;21.67;15.93;;;;;;;4.72;49.84;101938.66;5250109;28;20032;-71
2022/03/03 00:37:56;;;;;;;20.27;14.83;;;;;;;4.52;49.96;101926.03;5251538;28;20029;-71
2022/03/03 00:40:27;;;;;;;18.73;15.03;;;;;;;4.67;50.06;101927.50;5246386;28;20432;-71
2022/03/03 00:42:58;;;;;;;23.53;15.80;;;;;;;4.83;48.92;101921.13;5231071;28;20827;-71
2022/03/03 00:45:30;;;;;;;21.40;15.87;;;;;;;4.93;49.67;101928.75;5248081;28;20029;-73
2022/03/03 00:48:03;;;;;;;21.10;13.77;;;;;;;4.88;49.04;101922.78;5249409;28;20032;-72
2022/03/03 00:50:35;;;;;;;22.30;15.03;;;;;;;5.04;48.37;101924.25;5251473;28;20029;-71
2022/03/03 00:53:06;;;;;;;18.90;15.23;;;;;;;5.11;48.11;101922.38;5251857;28;20032;-70
2022/03/03 00:55:37;;;;;;;24.70;15.57;;;;;;;4.91;49.37;101914.94;5250174;28;20029;-71
2022/03/03 00:58:09;;;;;;;21.07;15.43;;;;;;;4.90;49.68;101921.03;5251779;28;20538;-71
2022/03/03 01:00:41;;;;;;;22.67;15.47;;;;;;;4.96;49.08;101913.13;5242702;28;20595;-71
2022/03/03 01:03:12;;;;;;;21.00;15.47;;;;;;;4.88;49.45;101910.69;5245182;28;20116;-71
2022/03/03 01:05:43;;;;;;;18.67;13.93;;;;;;;4.76;49.04;101910.91;5247660;28;20029;-71
2022/03/03 01:08:14;;;;;;;21.80;14.67;;;;;;;4.90;49.06;101908.06;5232140;28;20037;-71
2022/03/03 01:10:46;;;;;;;21.77;14.37;;;;;;;4.48;50.77;101912.25;5240449;28;20029;-70
2022/03/03 01:13:17;;;;;;;18.90;14.37;;;;;;;4.30;50.29;101923.75;5263215;28;20049;-71
2022/03/03 01:15:49;;;;;;;26.20;15.53;;;;;;;4.34;51.33;101920.25;5242334;28;20482;-71
2022/03/03 01:18:21;;;;;;;23.50;14.97;;;;;;;4.45;51.25;101915.72;5248203;28;20035;-71
2022/03/03 01:20:54;;;;;;;18.83;14.67;;;;;;;4.51;50.39;101917.38;5235698;28;20029;-71
2022/03/03 01:23:26;;;;;;;20.87;15.13;;;;;;;4.60;50.42;101916.34;5242130;28;20031;-71
2022/03/03 01:25:57;;;;;;;22.00;16.00;;;;;;;4.52;50.71;101906.09;5230972;28;20029;-71
2022/03/03 01:28:28;;;;;;;22.33;15.43;;;;;;;4.54;51.20;101906.94;5231448;28;20555;-71
2022/03/03 01:31:00;;;;;;;23.00;14.33;;;;;;;4.33;50.99;101908.16;5236694;28;20481;-71
2022/03/03 01:33:31;;;;;;;20.57;15.50;;;;;;;4.51;51.07;101917.38;5243540;28;20041;-72
2022/03/03 01:36:03;;;;;;;24.17;15.30;;;;;;;4.59;50.64;101902.53;5250854;28;20086;-71
2022/03/03 01:38:34;;;;;;;19.10;14.37;;;;;;;4.55;49.99;101897.41;5246813;28;20134;-71
2022/03/03 01:41:08;;;;;;;19.87;15.00;;;;;;;4.60;50.09;101893.00;5282455;28;20063;-71
2022/03/03 01:43:39;;;;;;;22.03;16.47;;;;;;;4.21;51.85;101889.31;5236333;28;20113;-71
2022/03/03 01:46:10;;;;;;;22.43;15.57;;;;;;;3.96;51.67;101888.84;5230728;28;20104;-71
2022/03/03 01:48:41;;;;;;;22.80;16.70;;;;;;;4.04;51.76;101886.13;5273094;28;20056;-70
2022/03/03 01:51:14;;;;;;;22.33;16.03;;;;;;;3.82;52.11;101881.28;5234193;28;20539;-71
2022/03/03 01:53:45;;;;;;;21.00;15.93;;;;;;;3.75;53.04;101889.13;5283528;28;20021;-71
2022/03/03 01:56:17;;;;;;;21.53;16.60;;;;;;;3.68;53.00;101884.06;5264241;28;20040;-71
2022/03/03 01:58:49;;;;;;;24.43;16.47;;;;;;;3.53;53.12;101891.16;5278782;28;20112;-71
2022/03/03 02:01:20;;;;;;;22.87;16.63;;;;;;;3.44;53.48;101874.00;5234416;28;20120;-71
2022/03/03 02:03:51;;;;;;;21.83;16.40;;;;;;;3.75;52.29;101871.00;5254667;28;20106;-71
2022/03/03 02:06:22;;;;;;;21.63;17.10;;;;;;;3.84;52.71;101858.81;5277785;22;20139;-70
2022/03/03 02:08:54;;;;;;;21.10;16.77;;;;;;;4.01;52.01;101865.44;5266155;28;20037;-71
2022/03/03 02:11:25;;;;;;;24.33;15.20;;;;;;;3.97;53.44;101851.69;5253430;28;20028;-70
2022/03/03 02:13:57;;;;;;;24.77;17.33;;;;;;;4.02;51.76;101859.38;5291227;28;20470;-71
2022/03/03 02:16:29;;;;;;;26.10;16.30;;;;;;;3.99;52.04;101862.88;5292811;28;20152;-70
2022/03/03 02:19:00;;;;;;;22.33;16.77;;;;;;;4.02;52.35;101852.47;5293264;28;20408;-73
2022/03/03 02:21:32;;;;;;;19.90;16.00;;;;;;;4.07;52.13;101847.19;5292168;28;20035;-72
2022/03/03 02:24:05;;;;;;;25.17;17.30;;;;;;;4.05;52.37;101854.16;5276620;28;20044;-71
2022/03/03 02:26:39;;;;;;;23.93;16.40;;;;;;;4.10;51.91;101840.22;5276233;28;20029;-71
2022/03/03 02:29:11;;;;;;;20.93;16.03;;;;;;;3.68;52.60;101842.63;5273975;28;20028;-71
2022/03/03 02:31:44;;;;;;;25.10;16.73;;;;;;;3.95;52.55;101850.84;5275755;28;20025;-71
2022/03/03 02:34:17;;;;;;;19.70;16.23;;;;;;;3.75;53.39;101854.59;5284253;28;20512;-71
2022/03/03 02:36:48;;;;;;;20.97;15.67;;;;;;;3.74;53.49;101847.69;5293725;28;20285;-70
2022/03/03 02:39:20;;;;;;;21.97;17.03;;;;;;;3.56;53.49;101852.25;5275580;28;20063;-70
2022/03/03 02:41:51;;;;;;;23.63;17.00;;;;;;;3.36;53.70;101849.94;5292225;28;20036;-71
2022/03/03 02:44:22;;;;;;;26.20;17.37;;;;;;;3.38;54.02;101849.06;5295908;28;20104;-71
2022/03/03 02:46:54;;;;;;;21.47;16.20;;;;;;;3.32;54.21;101843.94;5295962;28;20032;-71
2022/03/03 02:49:26;;;;;;;20.03;15.87;;;;;;;3.20;54.57;101847.56;5276773;28;20047;-70
2022/03/03 02:51:57;;;;;;;20.57;16.53;;;;;;;3.20;54.95;101847.56;5273337;28;20033;-71
2022/03/03 02:54:28;;;;;;;23.73;16.43;;;;;;;3.05;54.83;101832.22;5273242;28;20643;-70
2022/03/03 02:59:51;;;;;;;26.17;19.00;;;;;;;3.12;54.73;101836.44;5275173;28;20044;-70
2022/03/03 03:02:22;;;;;;;27.07;16.60;;;;;;;3.08;55.02;101839.94;5274434;28;20036;-71
2022/03/03 03:04:53;;;;;;;21.27;16.63;;;;;;;3.07;55.03;101831.31;5274822;28;20150;-71
2022/03/03 03:07:24;;;;;;;25.60;16.43;;;;;;;3.13;54.32;101839.00;5275196;28;20051;-71
2022/03/03 03:09:56;;;;;;;23.33;17.00;;;;;;;3.25;54.56;101830.22;5274956;28;20463;-70
2022/03/03 03:12:27;;;;;;;24.63;17.17;;;;;;;3.24;54.71;101845.78;5274049;28;20823;-70
2022/03/03 03:14:58;;;;;;;21.07;15.67;;;;;;;3.35;53.77;101841.31;5273926;28;20135;-72
2022/03/03 03:17:30;;;;;;;23.53;16.67;;;;;;;3.08;54.85;101833.03;5273433;28;20463;-70
2022/03/03 03:20:01;;;;;;;23.83;16.93;;;;;;;2.99;55.13;101844.34;5272885;28;20029;-72
2022/03/03 03:22:34;;;;;;;24.47;17.67;;;;;;;2.99;55.61;101843.50;5273791;28;20134;-71
2022/03/03 03:25:08;;;;;;;24.83;17.27;;;;;;;3.07;54.93;101833.91;5273492;28;20029;-71
2022/03/03 03:27:41;;;;;;;23.33;17.13;;;;;;;2.97;56.20;101827.13;5272866;28;20089;-71
2022/03/03 03:30:13;;;;;;;20.30;16.23;;;;;;;2.99;55.79;101822.78;5272332;28;20097;-70
2022/03/03 03:32:44;;;;;;;23.23;17.37;;;;;;;2.95;55.45;101826.31;5274236;28;20032;-70
2022/03/03 03:35:16;;;;;;;22.97;17.23;;;;;;;2.96;56.17;101820.25;5272689;28;20098;-71
2022/03/03 03:37:47;;;;;;;24.97;17.23;;;;;;;2.87;56.41;101818.63;5275350;28;20029;-70
2022/03/03 03:40:18;;;;;;;25.83;17.30;;;;;;;3.08;55.19;101821.81;5273939;28;20032;-70
2022/03/03 03:42:50;;;;;;;24.33;17.77;;;;;;;3.10;54.78;101815.75;5273380;28;20094;-70
2022/03/03 03:45:21;;;;;;;22.30;16.93;;;;;;;3.34;54.32;101818.03;5273626;28;20035;-70
2022/03/03 03:47:52;;;;;;;26.33;17.17;;;;;;;3.12;54.63;101815.75;5273884;28;20024;-70
2022/03/03 03:50:23;;;;;;;21.90;16.67;;;;;;;3.10;54.79;101815.75;5272795;28;20162;-71
2022/03/03 03:52:55;;;;;;;26.83;16.77;;;;;;;3.13;55.82;101813.13;5276008;28;20470;-70
2022/03/03 03:55:26;;;;;;;22.50;16.90;;;;;;;3.06;54.24;101795.09;5272533;28;20391;-70
2022/03/03 03:57:57;;;;;;;21.90;16.67;;;;;;;3.23;54.33;101800.06;5273097;28;20536;-72
2022/03/03 04:00:29;;;;;;;22.80;17.03;;;;;;;3.09;55.34;101795.91;5273571;28;20436;-71
2022/03/03 04:03:00;;;;;;;27.73;19.17;;;;;;;3.23;54.97;101800.06;5273173;28;20463;-71
2022/03/03 04:05:32;;;;;;;23.63;17.47;;;;;;;3.09;55.15;101808.84;5272370;28;20048;-70
2022/03/03 04:08:03;;;;;;;26.90;17.00;;;;;;;3.04;55.59;101810.66;5271366;28;20600;-71
2022/03/03 04:10:35;;;;;;;23.33;16.80;;;;;;;3.28;54.60;101816.41;5273074;28;20036;-71
2022/03/03 04:13:06;;;;;;;24.90;17.60;;;;;;;3.18;54.53;101807.06;5273151;28;20032;-71
2022/03/03 04:15:37;;;;;;;22.50;16.40;;;;;;;3.25;54.79;101819.00;5271731;28;20033;-71
2022/03/03 04:18:10;;;;;;;23.27;15.70;;;;;;;3.14;54.85;101811.41;5272829;28;20060;-71
2022/03/03 04:20:41;;;;;;;28.17;17.47;;;;;;;2.80;56.05;101797.13;5271694;28;20024;-70
2022/03/03 04:23:16;;;;;;;23.97;17.63;;;;;;;2.89;56.27;101802.22;5272429;28;20035;-71
2022/03/03 04:25:48;;;;;;;24.40;17.63;;;;;;;2.66;56.76;101789.53;5273378;28;20467;-71
2022/03/03 04:28:19;;;;;;;22.90;16.30;;;;;;;2.79;55.65;101779.91;5273404;28;20316;-70
2022/03/03 04:30:51;;;;;;;24.40;17.67;;;;;;;2.72;55.70;101786.03;5272905;28;20749;-70
2022/03/03 04:33:22;;;;;;;26.20;17.50;;;;;;;2.74;56.31;101782.53;5272440;28;20097;-71
2022/03/03 04:35:54;;;;;;;27.40;18.07;;;;;;;2.71;55.91;101781.72;5270778;28;20112;-70
2022/03/03 04:38:25;;;;;;;22.67;17.20;;;;;;;2.54;56.40;101780.19;5272454;28;20028;-71
2022/03/03 04:40:57;;;;;;;29.83;17.27;;;;;;;2.56;56.59;101777.56;5272705;28;20407;-71
2022/03/03 04:43:28;;;;;;;28.70;17.73;;;;;;;2.66;56.47;101772.28;5272432;28;20025;-70
2022/03/03 04:45:59;;;;;;;24.80;17.80;;;;;;;2.68;55.86;101779.16;5272228;28;20029;-71
2022/03/03 04:48:30;;;;;;;26.77;17.93;;;;;;;2.72;55.83;101765.34;5272301;28;20649;-70
2022/03/03 04:51:02;;;;;;;24.33;16.43;;;;;;;2.72;55.59;101763.59;5271380;28;20418;-71
2022/03/03 04:53:33;;;;;;;24.00;16.57;;;;;;;2.62;56.21;101759.38;5271794;28;20406;-73
2022/03/03 04:56:05;;;;;;;26.23;16.93;;;;;;;2.86;55.45;101744.47;5272521;28;20036;-71
2022/03/03 04:58:36;;;;;;;25.83;17.07;;;;;;;2.74;56.43;101761.00;5271914;28;20387;-71
2022/03/03 05:01:07;;;;;;;25.83;17.20;;;;;;;2.72;56.15;101757.56;5272476;28;20040;-71
2022/03/03 05:03:38;;;;;;;22.13;16.80;;;;;;;2.78;56.37;101767.84;5272393;28;20008;-71
2022/03/03 05:06:10;;;;;;;25.10;17.53;;;;;;;2.82;56.38;101764.34;5269391;28;20048;-70
2022/03/03 05:08:41;;;;;;;27.20;17.90;;;;;;;2.82;55.24;101764.34;5271188;28;20483;-71
2022/03/03 05:11:12;;;;;;;23.23;16.80;;;;;;;2.85;55.89;101769.47;5270236;28;20068;-70
2022/03/03 05:13:44;;;;;;;28.13;18.77;;;;;;;2.65;55.94;101761.97;5271879;28;20395;-72
2022/03/03 05:16:15;;;;;;;26.40;15.87;;;;;;;2.61;55.17;101775.78;5271827;28;20753;-70
2022/03/03 05:18:46;;;;;;;27.67;16.50;;;;;;;2.45;56.25;101765.63;5271062;28;20024;-70
2022/03/03 05:21:17;;;;;;;29.53;17.37;;;;;;;2.74;55.22;101768.75;5270891;28;20036;-70
2022/03/03 05:23:49;;;;;;;21.47;16.03;;;;;;;2.54;55.70;101781.03;5271753;28;20070;-71
2022/03/03 05:26:20;;;;;;;22.00;17.00;;;;;;;2.64;56.60;101770.56;5270614;28;20039;-70
2022/03/03 05:28:51;;;;;;;20.20;16.53;;;;;;;2.76;55.51;101774.75;5272163;28;20017;-70
2022/03/03 05:31:23;;;;;;;24.17;17.27;;;;;;;2.57;55.21;101754.28;5272196;28;20047;-70
2022/03/03 05:33:54;;;;;;;26.50;17.13;;;;;;;2.83;55.42;101776.41;5271924;28;20154;-71
2022/03/03 05:36:26;;;;;;;27.40;17.43;;;;;;;2.42;56.64;101771.69;5275969;28;20036;-70
2022/03/03 05:38:58;;;;;;;21.73;16.43;;;;;;;2.63;55.97;101769.75;5275295;28;20106;-72
2022/03/03 05:41:29;;;;;;;23.53;17.37;;;;;;;2.46;57.01;101782.84;5276293;28;20032;-71
2022/03/03 05:44:01;;;;;;;26.40;16.97;;;;;;;2.24;57.11;101787.38;5276750;28;20032;-70
2022/03/03 05:46:32;;;;;;;26.40;18.37;;;;;;;2.29;57.07;101788.19;5277953;28;20025;-70
2022/03/03 05:49:04;;;;;;;27.37;17.20;;;;;;;2.24;57.09;101798.56;5275292;28;20029;-70
2022/03/03 05:51:36;;;;;;;22.13;16.70;;;;;;;2.45;57.82;101793.19;5275183;28;20076;-70
2022/03/03 05:54:07;;;;;;;28.07;18.03;;;;;;;2.25;58.07;101789.09;5277114;28;20028;-70
2022/03/03 05:56:42;;;;;;;29.47;17.23;;;;;;;2.04;58.26;101766.00;5276264;28;20807;-71
2022/03/03 05:59:14;;;;;;;27.77;16.60;;;;;;;2.38;57.18;101784.66;5275244;28;20364;-71
2022/03/03 06:01:46;;;;;;;25.63;17.60;;;;;;;2.24;57.59;101783.06;5281397;28;20069;-71
2022/03/03 06:04:18;;;;;;;21.93;17.13;;;;;;;1.94;58.06;101790.22;5274606;28;20844;-73
2022/03/03 06:06:58;;;;;;;30.10;18.50;;;;;;;2.12;57.94;101786.63;5275680;28;20474;-71
2022/03/03 06:09:34;;;;;;;24.47;17.07;;;;;;;2.28;57.99;101781.31;5274500;28;20039;-71
2022/03/03 06:12:14;;;;;;;25.17;17.53;;;;;;;2.21;57.47;101780.50;5274648;28;20376;-71
2022/03/03 06:14:52;;;;;;;21.90;16.83;;;;;;;2.43;57.06;101780.28;5260758;28;20787;-71
2022/03/03 06:17:24;;;;;;;28.27;17.50;;;;;;;2.04;57.77;101783.25;5275561;28;20279;-71
2022/03/03 06:19:58;;;;;;;27.70;18.30;;;;;;;2.22;58.12;101771.00;5274603;28;20290;-71
2022/03/03 06:22:30;;;;;;;24.98;19.63;;;;;;;1.99;58.25;101772.09;5275656;28;20293;-70
2022/03/03 06:25:03;;;;;;;28.77;17.80;;;;;;;1.97;58.22;101777.28;5276019;28;20033;-71
2022/03/03 06:27:34;;;;;;;24.00;17.20;;;;;;;1.88;58.05;101779.94;5275648;28;20348;-71
2022/03/03 06:30:07;;;;;;;27.13;17.63;;;;;;;1.76;58.74;101781.72;5274744;28;20279;-71
2022/03/03 06:32:38;;;;;;;26.87;18.70;;;;;;;1.67;58.60;101786.97;5281166;28;20678;-72
2022/03/03 06:35:09;;;;;;;25.80;17.47;;;;;;;1.78;58.07;101789.50;5273827;28;20316;-77
2022/03/03 06:37:40;;;;;;;29.10;17.90;;;;;;;1.73;57.79;101792.09;5296315;28;20024;-74
2022/03/03 06:40:12;;;;;;;27.37;17.03;;;;;;;1.68;57.82;101783.53;5295589;28;20585;-74
2022/03/03 06:42:43;;;;;;;24.07;16.43;;;;;;;1.58;57.94;101772.41;5289846;28;20503;-73
2022/03/03 06:45:17;;;;;;;23.93;16.07;;;;;;;1.78;58.02;101798.06;5289209;28;20229;-73
2022/03/03 06:47:49;;;;;;;28.08;18.10;;;;;;;1.88;57.92;101783.38;5291250;28;20056;-74
2022/03/03 06:50:21;;;;;;;21.83;16.80;;;;;;;1.88;58.36;101793.72;5291946;28;20028;-73
2022/03/03 06:52:53;;;;;;;27.47;17.40;;;;;;;2.05;57.12;101803.03;5288948;28;20029;-73
2022/03/03 06:55:26;;;;;;;24.33;17.63;;;;;;;2.01;58.18;101798.75;5291044;28;20286;-73
2022/03/03 06:57:58;;;;;;;29.70;18.43;;;;;;;1.90;58.24;101797.13;5278810;28;20478;-76
2022/03/03 07:00:33;;;;;;;28.50;18.30;;;;;;;1.91;58.35;101800.56;5277165;28;21187;-72
2022/03/03 07:03:05;;;;;;;23.73;16.97;;;;;;;1.98;57.28;101809.13;5292980;28;20012;-72
2022/03/03 07:05:36;;;;;;;26.13;18.17;;;;;;;2.04;57.46;101793.59;5289404;28;20807;-72
2022/03/03 07:08:09;;;;;;;34.03;18.93;;;;;;;2.09;57.20;101786.66;5288943;28;20032;-72
2022/03/03 07:10:42;;;;;;;25.67;17.87;;;;;;;2.16;56.55;101806.38;5272673;28;20035;-72
2022/03/03 07:13:17;;;;;;;25.83;17.27;;;;;;;2.27;56.62;101797.69;5271985;28;20792;-72
2022/03/03 07:15:50;;;;;;;29.60;18.43;;;;;;;2.26;56.39;101808.91;5273539;28;20286;-72
2022/03/03 07:18:38;;;;;;;28.90;17.37;;;;;;;2.43;56.19;101819.06;5272730;28;20306;-72
2022/03/03 07:21:23;;;;;;;23.17;16.13;;;;;;;2.47;56.40;101814.72;5284328;28;20550;-72
2022/03/03 07:24:19;;;;;;;26.70;17.35;;;;;;;2.62;55.49;101814.56;5277058;28;20298;-72
2022/03/03 07:26:57;;;;;;;29.33;18.50;;;;;;;2.49;55.10;101813.00;5273662;28;20089;-73
2022/03/03 07:29:30;;;;;;;33.37;18.60;;;;;;;2.57;56.30;101811.19;5273823;28;20325;-72
2022/03/03 07:32:07;;;;;;;27.80;17.93;;;;;;;2.62;55.13;101817.16;5273266;28;20298;-72
2022/03/03 07:34:39;;;;;;;28.33;17.87;;;;;;;2.59;54.74;101814.59;5272893;28;20312;-72
2022/03/03 07:37:11;;;;;;;29.03;17.40;;;;;;;2.68;54.07;101812.78;5271921;28;20283;-73
2022/03/03 07:39:44;;;;;;;23.13;15.30;;;;;;;2.74;54.72;101820.50;5283302;28;20286;-74
2022/03/03 07:42:18;;;;;;;25.83;16.20;;;;;;;2.83;54.66;101811.78;5271780;28;20274;-75
2022/03/03 07:44:49;;;;;;;31.73;16.48;;;;;;;2.98;54.18;101819.38;5273136;28;20305;-74
2022/03/03 07:47:21;;;;;;;26.07;17.07;;;;;;;3.06;53.17;101808.91;5273057;28;20029;-72
2022/03/03 07:49:55;;;;;;;26.83;16.30;;;;;;;3.32;53.07;101807.69;5287264;28;20035;-72
2022/03/03 07:52:28;;;;;;;26.25;16.33;;;;;;;3.54;52.25;101788.41;5288293;28;20032;-74
2022/03/03 07:55:00;;;;;;;23.73;16.53;;;;;;;3.99;51.21;101811.03;5274821;28;20720;-74
2022/03/03 07:57:39;;;;;;;25.90;15.67;;;;;;;4.42;51.01;101804.25;5281259;28;20286;-74
2022/03/03 08:00:13;;;;;;;24.53;16.37;;;;;;;4.69;48.44;101816.72;5284366;28;20596;-77
2022/03/03 08:02:45;;;;;;;27.05;16.48;;;;;;;4.89;47.91;101824.13;5284979;28;20044;-74
2022/03/03 08:05:16;;;;;;;24.67;15.10;;;;;;;5.30;47.82;101816.38;5284949;28;20044;-72
2022/03/03 08:07:49;;;;;;;23.13;15.73;;;;;;;5.63;45.78;101809.56;5267983;28;20197;-71
2022/03/03 08:10:22;;;;;;;28.13;15.97;;;;;;;5.80;45.91;101807.44;5287112;28;20051;-72
2022/03/03 08:12:58;;;;;;;24.13;16.23;;;;;;;6.35;44.94;101820.88;5274271;28;20033;-76
2022/03/03 08:15:29;;;;;;;26.10;16.00;;;;;;;6.65;43.69;101810.50;5272348;28;20036;-76
2022/03/03 08:18:01;;;;;;;24.30;14.93;;;;;;;6.82;42.46;101827.41;5270575;28;20036;-75
2022/03/03 08:20:33;;;;;;;23.23;15.43;;;;;;;6.99;42.82;101814.78;5271230;28;20228;-76
2022/03/03 08:23:06;;;;;;;27.93;15.73;;;;;;;7.42;41.79;101805.72;5272493;28;20036;-74
2022/03/03 08:25:38;;;;;;;22.43;14.73;;;;;;;7.72;40.54;101798.66;5272797;28;20383;-77
2022/03/03 08:28:09;;;;;;;23.70;14.70;;;;;;;8.47;39.44;101795.31;5271722;28;20028;-77
2022/03/03 08:30:43;;;;;;;20.87;15.10;;;;;;;9.29;38.62;101803.66;5274566;28;20040;-77
2022/03/03 08:33:32;;;;;;;25.77;15.30;;;;;;;10.35;38.53;101803.75;5275141;28;20064;-76
2022/03/03 08:36:13;;;;;;;24.37;15.20;;;;;;;10.85;36.27;101780.63;5266615;28;20032;-77
2022/03/03 08:38:52;;;;;;;21.83;14.80;;;;;;;11.33;34.98;101775.75;5278390;28;20016;-77
2022/03/03 08:41:24;;;;;;;20.73;13.60;;;;;;;11.37;33.25;101798.31;5272916;28;20115;-77
2022/03/03 08:44:00;;;;;;;20.03;14.03;;;;;;;12.19;32.67;101786.47;5286721;28;20115;-77
2022/03/03 08:46:34;;;;;;;23.03;15.00;;;;;;;12.23;32.00;101798.53;5275226;28;20094;-77
2022/03/03 08:49:09;;;;;;;22.45;13.93;;;;;;;12.18;31.90;101793.50;5270789;28;20035;-76
2022/03/03 08:51:41;;;;;;;17.67;14.30;;;;;;;13.00;31.15;101798.00;5271656;28;20012;-76
2022/03/03 08:54:13;;;;;;;18.57;12.97;;;;;;;12.06;30.99;101792.31;5269376;28;20082;-76
2022/03/03 08:56:44;;;;;;;18.10;13.97;;;;;;;10.49;32.96;101790.09;5271962;28;20024;-77
2022/03/03 08:59:16;;;;;;;19.43;14.43;;;;;;;10.10;34.32;101799.56;5270749;28;20055;-77
2022/03/03 09:01:48;;;;;;;20.13;13.40;;;;;;;10.01;35.30;101811.28;5271899;28;20032;-76
2022/03/03 09:04:20;;;;;;;18.80;14.53;;;;;;;9.87;35.00;101796.16;5270601;28;20123;-76
2022/03/03 09:06:52;;;;;;;16.57;13.77;;;;;;;11.08;33.56;101803.13;5271548;28;20429;-76
2022/03/03 09:09:23;;;;;;;17.93;13.83;;;;;;;12.14;31.62;101791.13;5271120;28;20040;-75
2022/03/03 09:11:54;;;;;;;20.93;12.90;;;;;;;12.56;30.43;101796.84;5271277;28;20060;-76
2022/03/03 09:14:26;;;;;;;18.33;13.97;;;;;;;13.20;29.29;101798.66;5271359;28;20036;-76
2022/03/03 09:16:57;;;;;;;17.90;13.43;;;;;;;14.27;28.27;101804.03;5270055;28;20032;-75
2022/03/03 09:19:28;;;;;;;17.83;13.43;;;;;;;14.63;27.30;101796.59;5270620;28;20029;-75
2022/03/03 09:22:00;;;;;;;16.60;12.20;;;;;;;15.10;27.05;101791.94;5271066;28;20032;-76
2022/03/03 09:24:31;;;;;;;19.93;12.37;;;;;;;15.96;26.15;101790.78;5270895;28;20371;-76
2022/03/03 09:27:04;;;;;;;18.00;12.87;;;;;;;16.30;25.60;101790.31;5271604;28;20029;-75
2022/03/03 09:29:36;;;;;;;16.33;13.40;;;;;;;16.39;24.56;101780.91;5271249;28;20047;-76
2022/03/03 09:32:09;;;;;;;15.57;12.47;;;;;;;16.80;24.56;101778.91;5290488;28;20103;-76
2022/03/03 09:34:40;;;;;;;19.20;13.40;;;;;;;15.96;24.12;101765.22;5270444;28;20048;-76
2022/03/03 09:37:13;;;;;;;17.10;13.73;;;;;;;16.17;24.15;101791.16;5270894;28;20029;-77
2022/03/03 09:39:46;;;;;;;16.97;12.93;;;;;;;17.08;24.61;101766.31;5269834;28;20043;-76
2022/03/03 09:42:17;;;;;;;18.60;13.23;;;;;;;16.08;24.31;101773.28;5284821;28;20049;-77
2022/03/03 09:44:49;;;;;;;16.10;12.00;;;;;;;17.93;23.30;101765.41;5275885;28;20016;-76
2022/03/03 09:47:20;;;;;;;16.00;12.60;;;;;;;17.24;22.88;101770.53;5284557;28;20090;-77
2022/03/03 09:49:51;;;;;;;24.83;12.53;;;;;;;17.27;22.38;101771.13;5270447;28;20032;-76
2022/03/03 09:52:23;;;;;;;16.23;13.43;;;;;;;17.66;22.61;101738.28;5270611;28;20028;-76
2022/03/03 09:54:55;;;;;;;16.90;12.67;;;;;;;17.77;22.65;101742.75;5271076;28;20020;-76
2022/03/03 09:57:28;;;;;;;18.80;12.70;;;;;;;18.57;21.73;101769.31;5270331;28;20530;-76
2022/03/03 10:00:02;;;;;;;18.40;12.80;;;;;;;18.58;22.04;101770.16;5271504;28;20013;-76
2022/03/03 10:02:56;;;;;;;17.23;12.40;;;;;;;19.38;21.92;101767.31;5272082;28;20025;-76
2022/03/03 10:05:33;;;;;;;18.02;11.60;;;;;;;18.17;21.51;101762.69;5269263;28;20041;-76
2022/03/03 10:08:08;;;;;;;14.50;12.07;;;;;;;19.47;20.62;101776.34;5269345;28;20051;-76
2022/03/03 10:10:42;;;;;;;13.07;10.93;;;;;;;20.09;20.22;101769.50;5270895;28;20069;-76
2022/03/03 10:13:18;;;;;;;;;;;;;;;22.66;20.57;101764.06;5271513;28;20029;-76
2022/03/03 10:15:55;;;;;;;19.87;11.73;;;;;;;19.76;19.74;101758.94;5270404;28;19912;-76
2022/03/03 10:18:27;;;;;;;13.73;11.63;;;;;;;19.77;19.67;101750.81;5252055;28;20025;-77
2022/03/03 10:21:02;;;;;;;14.43;11.77;;;;;;;19.92;20.31;101753.97;5271238;28;20837;-76
2022/03/03 10:23:36;;;;;;;15.38;13.23;;;;;;;20.01;20.73;101757.66;5274609;28;20029;-77
2022/03/03 10:26:08;;;;;;;16.75;12.68;;;;;;;19.49;19.80;101763.78;5273967;28;20051;-77
2022/03/03 10:28:40;;;;;;;16.33;12.15;;;;;;;18.68;20.62;101759.66;5274548;28;20036;-77
2022/03/03 10:31:22;;;;;;;13.38;11.15;;;;;;;18.18;21.18;101737.03;5283821;28;20036;-77
2022/03/03 10:33:53;;;;;;;17.33;11.70;;;;;;;19.05;19.48;101740.75;5276291;28;20763;-76
2022/03/03 10:36:26;;;;;;;17.10;11.40;;;;;;;16.94;21.48;101748.81;5273298;28;20044;-76
2022/03/03 10:39:00;;;;;;;16.07;11.80;;;;;;;16.14;22.77;101749.09;5273999;28;20498;-76
2022/03/03 10:41:44;;;;;;;13.53;11.60;;;;;;;15.73;24.45;101746.50;5274493;28;20348;-76
2022/03/03 10:44:22;;;;;;;15.05;11.73;;;;;;;15.58;24.72;101743.09;5274617;28;20037;-77
2022/03/03 10:47:11;;;;;;;14.60;11.23;;;;;;;15.87;24.80;101747.34;5274162;28;20556;-76
2022/03/03 10:49:45;;;;;;;16.40;11.30;;;;;;;15.45;23.99;101745.72;5287640;28;20040;-76
2022/03/03 10:52:25;;;;;;;15.55;11.60;;;;;;;15.18;25.10;101749.22;5283404;28;20107;-77
2022/03/03 10:55:05;;;;;;;16.17;11.57;;;;;;;14.53;24.26;101740.97;5273387;28;20098;-76
2022/03/03 10:57:42;;;;;;;13.27;11.23;;;;;;;14.34;25.50;101755.28;5259036;28;20682;-76
2022/03/03 11:00:18;;;;;;;13.43;10.53;;;;;;;14.12;24.34;101750.50;5274162;28;20028;-76
2022/03/03 11:02:53;;;;;;;14.73;11.43;;;;;;;13.47;25.57;101708.59;5288040;28;20693;-76
2022/03/03 11:05:26;;;;;;;13.50;10.50;;;;;;;14.05;24.66;101710.47;5276873;28;20083;-76
2022/03/03 11:07:58;;;;;;;15.87;10.07;;;;;;;13.75;24.42;101730.66;5284554;28;20522;-76
2022/03/03 11:10:31;;;;;;;12.47;10.07;;;;;;;14.19;25.66;101741.25;5292552;28;20257;-76
2022/03/03 11:13:02;;;;;;;11.80;9.87;;;;;;;13.77;24.81;101751.66;5294634;28;20024;-76
2022/03/03 11:15:34;;;;;;;18.40;10.90;;;;;;;13.31;24.95;101750.72;5294243;28;20394;-76
2022/03/03 11:18:06;;;;;;;17.30;11.43;;;;;;;13.26;24.99;101739.63;5281250;28;20044;-75
2022/03/03 11:20:37;;;;;;;13.83;10.17;;;;;;;13.37;25.91;101752.16;5271675;28;20032;-75
2022/03/03 11:23:08;;;;;;;12.00;10.33;;;;;;;13.23;25.38;101747.69;5272543;28;20033;-75
2022/03/03 11:25:41;;;;;;;12.87;10.17;;;;;;;13.26;25.99;101742.25;5273900;28;20289;-73
2022/03/03 11:28:14;;;;;;;19.10;11.90;;;;;;;13.39;26.59;101735.34;5273479;28;20127;-73
2022/03/03 11:30:46;;;;;;;13.63;10.35;;;;;;;13.26;26.64;101736.97;5285781;28;20035;-73
2022/03/03 11:33:22;;;;;;;15.03;12.27;;;;;;;13.37;26.32;101733.75;5292309;28;20098;-74
2022/03/03 11:35:59;;;;;;;18.10;11.93;;;;;;;13.33;28.00;101721.69;5291791;28;20691;-75
2022/03/03 11:38:52;;;;;;;19.10;11.87;;;;;;;13.92;27.48;101718.28;5273441;28;20028;-74
2022/03/03 11:41:47;;;;;;;15.10;11.20;;;;;;;14.04;27.07;101727.22;5271831;28;20564;-75